Waterfront 5k 2019-20 - Event 15

Tuesday, January 28, 2020 17:47 (GMT+13) - Preliminary results

Race info
Sport: Running
Location: Wellington, New Zealand
Start type: Mass start
Racers: 143
Timed on: iPad
Timed with: Webscorer PRO 4.2
Chip timing: RFID - LLRP
RFID reader: Radiant
Updated: Wednesday, January 29, 2020 09:15 (GMT+13)
Race notes
All data entry done for new runners from tonight - another huge turn out with 262 runners and walker -with another 48 new runners tonight
Show more Show less

Contact organizer

Use this form to send an email to the organizer.

Your name
Your email address
Confirm email address
Message to organizer
Send

Place Bib Racer name Affiliation Category Gender Finish time
1876Bert PrendergastJohnsonville M20-29M 15:46.5--100%33.62%32.50%
2150Ben TwymanCrofton Downs M20-29M 15:49.4+0:02.9+0.31%99.69%33.42%32.29%
3885Jaspar OrtfeldNgaio M10-19M 16:37.0+0:50.5+5.34%94.93%30.08%28.90%
448Walter SomervilleMount Victoria M30-39M 17:44.7+1:58.2+12.49%88.90%25.33%24.07%
5264Dion YiwHataitai M30-39M 17:49.6+2:03.1+13.01%88.49%24.99%23.72%
6590Charles WiseThorndon M20-29M 17:57.4+2:10.9+13.83%87.85%24.44%23.16%
7910Axel TieKarori M30-39M 17:58.7+2:12.2+13.97%87.74%24.35%23.07%
8225Bevan CoxHataitai M10-19M 17:58.9+2:12.4+13.99%87.73%24.34%23.06%
9571Bram Parmentierte Aro M20-29M 18:05.4+2:18.9+14.68%87.20%23.88%22.59%
10385Paul BarwickMiramar M40-49M 18:12.8+2:26.3+15.46%86.61%23.36%22.07%
1114James Gowerseatoun M40-49M 18:31.9+2:45.4+17.47%85.12%22.02%20.70%
12870Mike CousinsNormandale M40-49M 18:35.5+2:49.0+17.86%84.85%21.77%20.45%
13443JOHN CREWEIsland Bay M20-29M 18:36.2+2:49.7+17.93%84.80%21.72%20.40%
14856George WhitworthWellington M30-39M 18:46.7+3:00.2+19.04%84.01%20.99%19.65%
15584Matthew CryerKarori M30-39M 18:54.1+3:07.6+19.82%83.46%20.47%19.12%
16358Hartley Malcolm-StevensBrooklyn M30-39M 18:59.0+3:12.5+20.34%83.10%20.12%18.77%
17356Richard ClaesKelburn M30-39M 19:13.1+3:26.6+21.83%82.08%19.13%17.76%
18871Harry PolandKelburn M20-29M 19:15.8+3:29.3+22.11%81.89%18.95%17.57%
19254Nick PerryKarori M40-49M 19:21.9+3:35.4+22.76%81.46%18.52%17.14%
20815Lorcan ByrneM20-29M 19:23.9+3:37.4+22.97%81.32%18.38%16.99%
21893Giles PearsonThorndon M50-59M 19:28.1+3:41.6+23.41%81.03%18.08%16.70%
22912Will CritchlowKelburn M30-39M 19:31.0+3:44.5+23.72%80.83%17.88%16.49%
23248Neil LynchOriedntal Bay M30-39M 19:36.6+3:50.1+24.31%80.44%17.49%16.09%
24147Jonathon JacksonWellington M20-29M 19:43.4+3:56.9+25.03%79.98%17.01%15.60%
25182Alex BroughWellington M-unknownM 19:47.6+4:01.1+25.47%79.70%16.72%15.30%
26676Phil WallPorirua M50-59M 19:51.3+4:04.8+25.86%79.45%16.46%15.04%
2726Andreas StockingerHataitai M20-29M 19:53.1+4:06.6+26.05%79.33%16.33%14.91%
28239Matthew WilsonWellington Central M30-39M 19:53.3+4:06.8+26.08%79.32%16.32%14.90%
291406Bill WangM-unknownM 19:54.5+4:08.0+26.20%79.24%16.23%14.81%
30318Matt VeldeKingston M40-49M 19:57.1+4:10.6+26.48%79.07%16.05%14.63%
3149Brendan HaileHataitai M30-39M 19:58.9+4:12.4+26.67%78.95%15.92%14.50%
326Jamie Te Hiwite Aro M40-49M 19:59.4+4:12.9+26.72%78.91%15.89%14.46%
33231Wayne PatrickHighbury M40-49M 19:59.5+4:13.0+26.73%78.91%15.88%14.46%
34820Hooman BahreiniMelrose M30-39M 20:06.2+4:19.7+27.44%78.47%15.41%13.98%
35610Harry BarnesTawa M30-39M 20:08.0+4:21.5+27.63%78.35%15.28%13.85%
36731Mal VirideWellington M-unknownM 20:08.6+4:22.1+27.69%78.31%15.24%13.81%
37879Denny Adamson BarklaHataitai M20-29M 20:19.0+4:32.5+28.79%77.65%14.51%13.07%
3856Alistair CollowMount Victoria M20-29M 20:35.9+4:49.4+30.58%76.58%13.33%11.86%
39482Isaac Moffat-YoungWellington M20-29M 20:43.9+4:57.4+31.42%76.09%12.77%11.29%
40289Ronan McIlvennyNewtown M20-29M 21:04.2+5:17.7+33.57%74.87%11.34%9.84%
41728Tawhai MossEpuni M-unknownM 21:05.3+5:18.8+33.68%74.80%11.27%9.76%
42582Rutger MaasdamNgaio M20-29M 21:13.3+5:26.8+34.53%74.33%10.71%9.19%
43581Iain ShawNgaio M30-39M 21:14.4+5:27.9+34.64%74.27%10.63%9.11%
4463Karl JacksonSouthgate M30-39M 21:19.0+5:32.5+35.13%74.00%10.31%8.79%
45364Simon TemplemanNgaio M30-39M 21:20.0+5:33.5+35.24%73.95%10.24%8.71%
46909Phelim O'LearyHataitai M20-29M 21:24.9+5:38.4+35.75%73.66%9.89%8.37%
47863Roy McKeeThorndon M20-29M 21:43.0+5:56.5+37.67%72.64%8.62%7.07%
48454Ben DaviesWellington M20-29M 21:43.5+5:57.0+37.72%72.61%8.59%7.04%
49101Jarred CampbellWellington M20-29M 21:59.0+6:12.5+39.36%71.76%7.50%5.93%
50347Joel MacManusNewtown M20-29M 21:59.6+6:13.1+39.42%71.73%7.46%5.89%
5178Antony PaltridgeWellington Central M50-59M 22:02.1+6:15.6+39.68%71.59%7.28%5.71%
52297Jordan CollinsMornington M30-39M 22:02.2+6:15.7+39.69%71.59%7.28%5.71%
53184Ben Currante Aro M20-29M 22:04.5+6:18.0+39.94%71.46%7.11%5.54%
54821Tom RobinsonBerhampore M20-29M 22:06.9+6:20.4+40.19%71.33%6.95%5.37%
55719Sam GwynnMelrose M30-39M 22:07.1+6:20.6+40.21%71.32%6.93%5.36%
56203Timon WalkeyWellington M30-39M 22:09.4+6:22.9+40.45%71.20%6.77%5.19%
5757Simon BidwellMount Cook M40-49M 22:16.1+6:29.6+41.16%70.84%6.30%4.71%
58622James TurnerHighbury M50-59M 22:25.5+6:39.0+42.16%70.35%5.64%4.04%
59278Ben MorrowMount Victoria M20-29M 22:33.6+6:47.1+43.01%69.92%5.07%3.47%
60411Micael ArcherWellington M30-39M 22:50.7+7:04.2+44.82%69.05%3.87%2.25%
61579Sam TurnerMount Cook M30-39M 22:51.4+7:04.9+44.89%69.02%3.83%2.20%
62805Robert PattersonWellington M20-29M 22:51.5+7:05.0+44.90%69.01%3.82%2.19%
632Chris JamesHataitai M30-39M 22:53.9+7:07.4+45.16%68.89%3.65%2.02%
64305Ming Shang NgWellington M20-29M 22:58.8+7:12.3+45.67%68.65%3.31%1.67%
6562James Kimte Aro M20-29M 22:59.4+7:12.9+45.74%68.62%3.26%1.63%
66860Kayvan BahreiniM30-39M 22:59.6+7:13.1+45.76%68.61%3.25%1.61%
6736Fred MwilaTawa M50-59M 23:04.5+7:18.0+46.28%68.36%2.91%1.26%
6858Michael O'Connorte Aro M30-39M 23:08.8+7:22.3+46.73%68.15%2.61%0.96%
69144Stephen BakerKhandallah M40-49M 23:13.0+7:26.5+47.17%67.95%2.31%0.66%
7013Sebastien BrachetWellington M30-39M 23:15.4+7:28.9+47.43%67.83%2.14%0.48%
71674Theo WallPorirua M00-09M 23:15.5+7:29.0+47.44%67.83%2.14%0.48%
72658Danny EyreKingston M30-39M 23:22.2+7:35.7+48.15%67.50%1.67%0.00%
73775Toby Aikman-NordonWellington M10-19M 23:36.4+7:49.9+49.65%66.82%0.67%-1.01%
74849Mark HerridgeNewtown M30-39M 23:39.0+7:52.5+49.92%66.70%0.49%-1.20%
75852Hamish McCawHataitai M50-59M 23:46.8+8:00.3+50.74%66.34%-0.06%-1.75%
76448David RileyKhandallah M30-39M 23:50.1+8:03.6+51.09%66.18%-0.29%-1.99%
77470Chris BaldasIsland Bay M30-39M 23:53.7+8:07.2+51.47%66.02%-0.54%-2.25%
7837Aaron GillKarori M40-49M 23:59.7+8:13.2+52.11%65.74%-0.96%-2.67%
79282Matt StansfieldThorndon M20-29M 24:05.3+8:18.8+52.70%65.49%-1.36%-3.07%
80851Jason LiThorndon M20-29M 24:05.8+8:19.3+52.75%65.47%-1.39%-3.11%
812344Jason Chengte Aro M30-39M 24:13.3+8:26.8+53.54%65.13%-1.92%-3.64%
82868Louis BarnettHataitai M10-19M 24:13.8+8:27.3+53.60%65.11%-1.95%-3.68%
83875Samuel PollockHataitai M10-19M 24:15.1+8:28.6+53.73%65.05%-2.04%-3.77%
8422Frank ColeBrooklyn M50-59M 24:18.8+8:32.3+54.13%64.88%-2.30%-4.04%
8579Matt ColesKelburn M50-59M 24:19.0+8:32.5+54.15%64.87%-2.32%-4.05%
862384Brent Golderte Aro M30-39M 24:22.7+8:36.2+54.54%64.71%-2.58%-4.31%
87240Jurgen BurgerM20-29M 24:30.1+8:43.6+55.32%64.38%-3.10%-4.84%
8868Chris LeeM30-39M 24:34.2+8:47.7+55.75%64.20%-3.38%-5.13%
89440Luca SansonBrooklyn M10-19M 24:34.3+8:47.8+55.76%64.20%-3.39%-5.14%
9084Tim BaileyNewtown M30-39M 24:36.1+8:49.6+55.95%64.12%-3.52%-5.27%
91272Frank GrieveAro Valley M30-39M 24:37.3+8:50.8+56.08%64.07%-3.60%-5.36%
9270Shinichi MuroyaKarori M50-59M 24:40.4+8:53.9+56.41%63.94%-3.82%-5.58%
93188Chris JenkinsonWellington Central M30-39M 24:41.0+8:54.5+56.47%63.91%-3.86%-5.62%
94518Warren KingThorndon M-unknownM 24:42.2+8:55.7+56.60%63.86%-3.94%-5.71%
95321Adam LawlorParaparaumu M30-39M 24:49.8+9:03.3+57.40%63.53%-4.48%-6.25%
96327Timothy YoungWellington M30-39M 24:54.7+9:08.2+57.92%63.32%-4.82%-6.60%
97800Matt ReidPinehaven M30-39M 24:57.1+9:10.6+58.17%63.22%-4.99%-6.77%
98198Justin YoungNewtown M30-39M 25:00.2+9:13.7+58.50%63.09%-5.21%-6.99%
9923Greg MaxtedPaparangi M30-39M 25:00.9+9:14.4+58.57%63.06%-5.26%-7.04%
100560Rob SansonBrooklyn M40-49M 25:12.8+9:26.3+59.83%62.57%-6.09%-7.89%
10118Adam BennettsAro Valley M40-49M 25:24.4+9:37.9+61.06%62.09%-6.90%-8.71%
102298Benjamin McKayMount Victoria M30-39M 25:29.4+9:42.9+61.58%61.89%-7.25%-9.07%
103548Samuel OldAro Valley M20-29M 25:30.5+9:44.0+61.70%61.84%-7.33%-9.15%
104904Saul ButlerKarori M50-59M 25:41.8+9:55.3+62.89%61.39%-8.12%-9.96%
105405Dennis HardieWilton M60-69M 25:47.4+10:00.9+63.49%61.17%-8.52%-10.36%
106866Steve KeatsBerhamphore M40-49M 25:55.9+10:09.4+64.38%60.83%-9.11%-10.96%
107907Mason LongdillPlimmerton M20-29M 26:04.5+10:18.0+65.29%60.50%-9.72%-11.57%
108255Nick WillmottNgaio M30-39M 26:17.4+10:30.9+66.66%60.00%-10.62%-12.49%
109643Phil GoodwinBrooklyn M50-59M 26:23.6+10:37.1+67.31%59.77%-11.06%-12.94%
11055Don McLaren-SmithKelburn M50-59M 26:26.7+10:40.2+67.64%59.65%-11.27%-13.16%
110903Elwin AlcazarMt Cook, Wellington M30-39M 26:26.7+10:40.2+67.64%59.65%-11.27%-13.16%
11230Jhowei Gomeste Aro M30-39M 26:30.4+10:43.9+68.03%59.51%-11.53%-13.42%
11372Sam OlivecronaMount Cook M20-29M 26:44.4+10:57.9+69.51%58.99%-12.51%-14.42%
114145Lawrence ChuNewtown M20-29M 26:48.9+11:02.4+69.98%58.83%-12.83%-14.74%
115878Gareth Hutchinsonseatoun M50-59M 26:49.5+11:03.0+70.05%58.81%-12.87%-14.78%
116760Gregor CosterKarori M70-79M 26:53.2+11:06.7+70.44%58.67%-13.13%-15.05%
1179Paul JohansonAro Valley M30-39M 26:56.2+11:09.7+70.76%58.56%-13.34%-15.26%
118882Peter RamagePetone M30-39M 27:12.8+11:26.3+72.51%57.97%-14.51%-16.45%
11939Kyle SchwartzIsland Bay M30-39M 27:22.0+11:35.5+73.48%57.64%-15.15%-17.10%
119524Leo BrowningAro Valley M20-29M 27:22.0+11:35.5+73.48%57.64%-15.15%-17.10%
121317Angus HawkinsIsland Bay M20-29M 27:27.0+11:40.5+74.01%57.47%-15.50%-17.46%
122681Dan PriceCrofton Downs M30-39M 27:34.6+11:48.1+74.81%57.20%-16.03%-18.00%
123727Colin RobinsonKelburn M-unknownM 27:39.4+11:52.9+75.32%57.04%-16.37%-18.34%
124685Ralph DickinsonWellington M60-69M 27:45.1+11:58.6+75.92%56.84%-16.77%-18.75%
125139Ryan McCarvillWellington M30-39M 27:58.1+12:11.6+77.30%56.40%-17.68%-19.68%
126897Isaac WallPorirua M10-19M 28:07.8+12:21.3+78.32%56.08%-18.36%-20.37%
127326Nick DavisBroadmeadows M30-39M 28:13.2+12:26.7+78.89%55.90%-18.74%-20.75%
128324Tim SwanM30-39M 28:20.9+12:34.4+79.70%55.65%-19.28%-21.30%
129280Ethan AbbeyRoseneath M30-39M 28:25.7+12:39.2+80.21%55.49%-19.62%-21.64%
13035Michael Sovikte Aro M50-59M 28:35.7+12:49.2+81.27%55.17%-20.32%-22.36%
131890Alan Vander molenM-unknownM 29:37.5+13:51.0+87.80%53.25%-24.65%-26.77%
132178Laurence FeehanKarori M60-69M 29:37.9+13:51.4+87.84%53.24%-24.68%-26.79%
133106Willie StephensEastbourne M30-39M 29:38.8+13:52.3+87.93%53.21%-24.74%-26.86%
134914Ketan PatelRoseneath M20-29M 29:57.7+14:11.2+89.93%52.65%-26.07%-28.21%
13531Bevan Wallacete Aro M60-69M 30:49.6+15:03.1+95.41%51.17%-29.71%-31.91%
136116David O'BrienHataitai M30-39M 31:06.7+15:20.2+97.22%50.70%-30.91%-33.13%
137508Paul JakobsPorirua M50-59M 31:14.1+15:27.6+98.00%50.50%-31.43%-33.65%
138867Keith VincentHavelock North M60-69M 31:34.5+15:48.0+100.16%49.96%-32.86%-35.11%
13977Don StevensNorthland M50-59M 32:15.9+16:29.4+104.53%48.89%-35.76%-38.06%
140915Jarem WylieM20-29M 34:25.5+18:39.0+118.23%45.82%-44.85%-47.30%
141774Matt TrumanKilbirnie M30-39M 35:27.5+19:41.0+124.78%44.49%-49.20%-51.73%
142902Jacob LeungWellington M00-09M 38:02.4+22:15.9+141.14%41.47%-60.06%-62.77%
143422Jason TaylorWellington CBD M50-59M 44:04.8+28:18.3+179.43%35.79%-85.48%-88.62%